ICTK1: Arkansas R At Wichita, KS

                                SHEF ID:       ICTK1     ARKANSAS R AT WICHITA, KS
STATION TYPE:
Regulating: Stage = 12.00, Flow = 10825

PRECIP STAGE RIV-FLOW BAT-LOAD
in ft cfs volt
Ccp-Rev Ccp-Rev Ccp-Rev Ccp-Rev
(America/Chicago)
03/11 00:00 0.00 4.90 1199 12.40
03/11 01:00 0.00 4.47 914 12.38
03/11 02:00 0.00 4.14 720 12.36
03/11 03:00 0.00 3.92 603 12.35
03/11 04:00 0.00 3.80 543 12.33
03/11 05:00 0.00 3.74 514 12.31
03/11 06:00 0.00 3.71 500 12.27
03/11 07:00 0.00 3.70 495 12.24
03/11 08:00 0.00 3.71 500 12.23
03/11 09:00 0.00 3.75 519 13.31
03/11 10:00 0.00 3.80 543 13.18
03/11 11:00 0.00 3.86 572 13.40
03/11 12:00 0.00 3.92 603 13.39
03/11 13:00 0.00 3.98 634 13.41
03/11 14:00 0.00 4.03 660 13.49
03/11 15:00 0.00 4.07 682 13.67
03/11 16:00 0.00 4.10 698 13.60
03/11 17:00 0.00 4.12 709 13.52
03/11 18:00 0.00 4.11 703 13.49
03/11 19:00 0.00 4.10 698 13.47
03/11 20:00 0.00 4.08 687 13.03
03/11 21:00 0.00 4.05 671 12.56
03/11 22:00 0.00 4.01 650 12.44
03/11 23:00 0.00 3.97 629 12.41
Data processed at Thu 12Mar2026 04:47 GMT

NOTICE: If you are parsing this page

Please convert to using our Data API. Starting early 2026 we will be migrating to: https://water.usace.army.mil with modern pages rendered in JavaScript. When this migration completes you will no longer be able to scrape this page! CWMSDataAPI (CDA)

Timeseries IDs (TSIDs)

TSIDs used from left to right in the data table
WICH.Precip-Inc.Total.1Hour.1Hour.Ccp-Rev
WICH.Stage.Inst.1Hour.0.Ccp-Rev
WICH.Flow.Inst.1Hour.0.Ccp-Rev
WICH.Volt-Battery Load.Inst.1Hour.0.Ccp-Rev

                            

All information presented herein is the property of the government of the United States of America and may be revised or deleted at any time without prior notice. Dissemination of this information without the expressed written consent of the Public Affairs Office, Tulsa District U.S. Army Corps of Engineers is strictly prohibited. These data are gathered electronically and, as presented, have NOT undergone any form of quality control. These data are NOT guaranteed to be valid or correct.